WAT5227 EHAM-LFBO
Flight info
| Callsign | WAT5227 |
|---|---|
| Flight time | N/A |
| Altitude | 33000 |
| Route | WOODY N872 DENOX/N0467F350 N872 MEDIL DCT KOVIN DCT DUCRA UM728 RESMI UN857 DISAK DCT DIRMO DCT GUERE DCT NARAK |
| Aircraft | A343/H-SDE2E3FGHIJ4J5M1RWXY/LB1D1 |
Departure
| Time | 2026-05-06 15:19 |
|---|---|
| Airport | Amsterdam Airport Schiphol (EHAM) |
Arrival
| Time | N/A |
|---|---|
| Airport | Toulouse-Blagnac Airport (LFBO) |
| Time | Latitude | Longitude | Altitude | Speed | Heading |
|---|---|---|---|---|---|
| 2026-05-06 14:36 | 52.29402 | 4.75923 | 0 ft | 0 kts | 147° |
| 2026-05-06 14:59 | 52.29406 | 4.75919 | 1 ft | 3 kts | 147° |
| 2026-05-06 15:00 | 52.29421 | 4.75902 | 0 ft | 3 kts | 147° |
| 2026-05-06 15:00 | 52.29437 | 4.75886 | 1 ft | 3 kts | 147° |
| 2026-05-06 15:00 | 52.29453 | 4.75870 | 1 ft | 3 kts | 147° |
| 2026-05-06 15:00 | 52.29469 | 4.75854 | 4 ft | 3 kts | 141° |
| 2026-05-06 15:01 | 52.29481 | 4.75837 | 2 ft | 1 kts | 165° |
| 2026-05-06 15:01 | 52.29496 | 4.75827 | 2 ft | 3 kts | 128° |
| 2026-05-06 15:01 | 52.29505 | 4.75806 | 4 ft | 0 kts | 92° |
| 2026-05-06 15:06 | 52.29505 | 4.75807 | 4 ft | 0 kts | 92° |
| 2026-05-06 15:07 | 52.29504 | 4.75817 | 5 ft | 4 kts | 92° |
| 2026-05-06 15:07 | 52.29510 | 4.75874 | 1 ft | 6 kts | 77° |
| 2026-05-06 15:07 | 52.29531 | 4.75955 | 0 ft | 11 kts | 63° |
| 2026-05-06 15:08 | 52.29558 | 4.76032 | 0 ft | 12 kts | 58° |
| 2026-05-06 15:08 | 52.29605 | 4.76156 | 0 ft | 12 kts | 58° |
| 2026-05-06 15:08 | 52.29649 | 4.76273 | 0 ft | 12 kts | 58° |
| 2026-05-06 15:08 | 52.29694 | 4.76389 | 0 ft | 12 kts | 58° |
| 2026-05-06 15:09 | 52.29740 | 4.76509 | 0 ft | 13 kts | 58° |
| 2026-05-06 15:09 | 52.29787 | 4.76630 | 0 ft | 13 kts | 57° |
| 2026-05-06 15:09 | 52.29834 | 4.76752 | 0 ft | 13 kts | 57° |
| 2026-05-06 15:09 | 52.29893 | 4.76859 | 2 ft | 12 kts | 42° |
| 2026-05-06 15:10 | 52.29958 | 4.76982 | 4 ft | 18 kts | 56° |
| 2026-05-06 15:10 | 52.30038 | 4.77190 | 1 ft | 26 kts | 58° |
| 2026-05-06 15:10 | 52.30142 | 4.77445 | -1 ft | 27 kts | 47° |
| 2026-05-06 15:10 | 52.30298 | 4.77564 | 1 ft | 24 kts | 6° |
| 2026-05-06 15:11 | 52.30460 | 4.77581 | 1 ft | 22 kts | 2° |
| 2026-05-06 15:11 | 52.30538 | 4.77567 | 2 ft | 7 kts | 338° |
| 2026-05-06 15:11 | 52.30578 | 4.77534 | 1 ft | 14 kts | 332° |
| 2026-05-06 15:11 | 52.30683 | 4.77459 | 1 ft | 17 kts | 351° |
| 2026-05-06 15:12 | 52.30804 | 4.77466 | 1 ft | 18 kts | 3° |
| 2026-05-06 15:12 | 52.30928 | 4.77478 | 2 ft | 18 kts | 3° |
| 2026-05-06 15:12 | 52.31057 | 4.77488 | 1 ft | 19 kts | 2° |
| 2026-05-06 15:12 | 52.31192 | 4.77500 | 1 ft | 20 kts | 4° |
| 2026-05-06 15:13 | 52.31320 | 4.77455 | 1 ft | 20 kts | 322° |
| 2026-05-06 15:13 | 52.31414 | 4.77285 | 3 ft | 21 kts | 311° |
| 2026-05-06 15:13 | 52.31483 | 4.77078 | 1 ft | 22 kts | 274° |
| 2026-05-06 15:13 | 52.31477 | 4.76822 | 1 ft | 23 kts | 266° |
| 2026-05-06 15:14 | 52.31467 | 4.76549 | 2 ft | 25 kts | 267° |
| 2026-05-06 15:14 | 52.31457 | 4.76262 | 2 ft | 26 kts | 267° |
| 2026-05-06 15:14 | 52.31447 | 4.75960 | 2 ft | 27 kts | 268° |
| 2026-05-06 15:14 | 52.31442 | 4.75790 | 1 ft | 0 kts | 266° |
| 2026-05-06 15:15 | 52.31440 | 4.75742 | 1 ft | 10 kts | 266° |
| 2026-05-06 15:15 | 52.31433 | 4.75555 | 1 ft | 21 kts | 266° |
| 2026-05-06 15:15 | 52.31421 | 4.75308 | 1 ft | 22 kts | 266° |
| 2026-05-06 15:15 | 52.31414 | 4.75063 | 1 ft | 22 kts | 267° |
| 2026-05-06 15:16 | 52.31407 | 4.74815 | 1 ft | 22 kts | 268° |
| 2026-05-06 15:16 | 52.31423 | 4.74689 | 2 ft | 7 kts | 324° |
| 2026-05-06 15:16 | 52.31475 | 4.74670 | 2 ft | 8 kts | 354° |
| 2026-05-06 15:16 | 52.31536 | 4.74664 | 2 ft | 9 kts | 357° |
| 2026-05-06 15:17 | 52.31597 | 4.74660 | 4 ft | 8 kts | 359° |
| 2026-05-06 15:17 | 52.31649 | 4.74663 | 4 ft | 5 kts | 14° |
| 2026-05-06 15:17 | 52.31659 | 4.74692 | 4 ft | 3 kts | 63° |
| 2026-05-06 15:17 | 52.31666 | 4.74731 | 4 ft | 4 kts | 74° |
| 2026-05-06 15:18 | 52.31669 | 4.74771 | 3 ft | 0 kts | 88° |
| 2026-05-06 15:18 | 52.31669 | 4.74778 | 3 ft | 2 kts | 88° |
| 2026-05-06 15:18 | 52.31672 | 4.74884 | 0 ft | 25 kts | 88° |
| 2026-05-06 15:18 | 52.31696 | 4.75563 | -2 ft | 95 kts | 86° |
| 2026-05-06 15:19 | 52.31745 | 4.76969 | 0 ft | 151 kts | 87° |
| 2026-05-06 15:19 | 52.31810 | 4.78745 | 245 ft | 178 kts | 84° |
| 2026-05-06 15:19 | 52.31802 | 4.80709 | 992 ft | 186 kts | 98° |
| 2026-05-06 15:19 | 52.31021 | 4.82526 | 1559 ft | 218 kts | 140° |
| 2026-05-06 15:20 | 52.29469 | 4.83252 | 1912 ft | 245 kts | 169° |
| 2026-05-06 15:20 | 52.27839 | 4.83592 | 3071 ft | 229 kts | 166° |
| 2026-05-06 15:20 | 52.26309 | 4.84273 | 3983 ft | 229 kts | 156° |
| 2026-05-06 15:20 | 52.24707 | 4.84840 | 4645 ft | 246 kts | 174° |
| 2026-05-06 15:21 | 52.22912 | 4.84870 | 4936 ft | 270 kts | 177° |
| 2026-05-06 15:21 | 52.20986 | 4.84795 | 5173 ft | 281 kts | 178° |
| 2026-05-06 15:21 | 52.19253 | 4.84722 | 5927 ft | 279 kts | 179° |
| 2026-05-06 15:21 | 52.17416 | 4.84657 | 6858 ft | 277 kts | 180° |
| 2026-05-06 15:22 | 52.15496 | 4.84599 | 7632 ft | 282 kts | 180° |
| 2026-05-06 15:22 | 52.13539 | 4.84550 | 8391 ft | 285 kts | 180° |
| 2026-05-06 15:22 | 52.11548 | 4.84503 | 9215 ft | 289 kts | 181° |
| 2026-05-06 15:22 | 52.09524 | 4.84458 | 9958 ft | 291 kts | 181° |
| 2026-05-06 15:23 | 52.07455 | 4.84413 | 10434 ft | 305 kts | 181° |
| 2026-05-06 15:23 | 52.05277 | 4.84366 | 10781 ft | 321 kts | 181° |
| 2026-05-06 15:23 | 52.03068 | 4.84260 | 11085 ft | 336 kts | 186° |
| 2026-05-06 15:23 | 52.00791 | 4.83342 | 11397 ft | 348 kts | 204° |
| 2026-05-06 15:24 | 51.98557 | 4.81650 | 11764 ft | 360 kts | 207° |
| 2026-05-06 15:24 | 51.96288 | 4.79831 | 12308 ft | 367 kts | 208° |
| 2026-05-06 15:24 | 51.93982 | 4.77997 | 12924 ft | 372 kts | 208° |
| 2026-05-06 15:24 | 51.91640 | 4.76146 | 13573 ft | 376 kts | 207° |
| 2026-05-06 15:25 | 51.89270 | 4.74276 | 14153 ft | 380 kts | 207° |
| 2026-05-06 15:25 | 51.86880 | 4.72404 | 14730 ft | 384 kts | 208° |
| 2026-05-06 15:25 | 51.84455 | 4.70512 | 15318 ft | 388 kts | 208° |
| 2026-05-06 15:25 | 51.82009 | 4.68604 | 15906 ft | 392 kts | 207° |
| 2026-05-06 15:26 | 51.79547 | 4.66685 | 16491 ft | 395 kts | 207° |
| 2026-05-06 15:26 | 51.77093 | 4.64776 | 17092 ft | 398 kts | 207° |
| 2026-05-06 15:26 | 51.74587 | 4.62830 | 17668 ft | 401 kts | 207° |
| 2026-05-06 15:26 | 51.72056 | 4.60865 | 18253 ft | 405 kts | 207° |
| 2026-05-06 15:27 | 51.69515 | 4.58894 | 18760 ft | 408 kts | 207° |
| 2026-05-06 15:27 | 51.66951 | 4.56910 | 19326 ft | 409 kts | 207° |
| 2026-05-06 15:27 | 51.64378 | 4.54917 | 19917 ft | 410 kts | 206° |
| 2026-05-06 15:27 | 51.61798 | 4.52927 | 20436 ft | 412 kts | 206° |
| 2026-05-06 15:28 | 51.59199 | 4.50928 | 20939 ft | 415 kts | 207° |
| 2026-05-06 15:28 | 51.56628 | 4.48953 | 21501 ft | 416 kts | 207° |
| 2026-05-06 15:28 | 51.54016 | 4.46947 | 21999 ft | 419 kts | 207° |
| 2026-05-06 15:28 | 51.51374 | 4.44919 | 22457 ft | 422 kts | 206° |
| 2026-05-06 15:29 | 51.48720 | 4.42885 | 22923 ft | 424 kts | 206° |
| 2026-05-06 15:29 | 51.46046 | 4.40839 | 23378 ft | 427 kts | 206° |
| 2026-05-06 15:29 | 51.43350 | 4.38777 | 23732 ft | 431 kts | 206° |
| 2026-05-06 15:29 | 51.40634 | 4.36704 | 24091 ft | 433 kts | 206° |
| 2026-05-06 15:30 | 51.37912 | 4.34622 | 24505 ft | 434 kts | 206° |
| 2026-05-06 15:30 | 51.35209 | 4.32564 | 24883 ft | 436 kts | 206° |
| 2026-05-06 15:30 | 51.32420 | 4.30448 | 25226 ft | 439 kts | 206° |
| 2026-05-06 15:30 | 51.29718 | 4.28397 | 25631 ft | 439 kts | 206° |
| 2026-05-06 15:31 | 51.26951 | 4.26295 | 25983 ft | 442 kts | 206° |
| 2026-05-06 15:31 | 51.24160 | 4.24181 | 26257 ft | 445 kts | 206° |
| 2026-05-06 15:31 | 51.21359 | 4.22062 | 26626 ft | 446 kts | 206° |
| 2026-05-06 15:32 | 51.15668 | 4.18019 | 27243 ft | 451 kts | 201° |
| 2026-05-06 15:32 | 51.12712 | 4.16292 | 27614 ft | 452 kts | 200° |
| 2026-05-06 15:32 | 51.09747 | 4.14631 | 27977 ft | 453 kts | 199° |
| 2026-05-06 15:32 | 51.06760 | 4.12993 | 28223 ft | 456 kts | 199° |
| 2026-05-06 15:33 | 51.03746 | 4.11357 | 28546 ft | 458 kts | 199° |
| 2026-05-06 15:33 | 51.00730 | 4.09724 | 28895 ft | 458 kts | 199° |
| 2026-05-06 15:33 | 50.97699 | 4.08082 | 29147 ft | 461 kts | 199° |
| 2026-05-06 15:33 | 50.94657 | 4.06430 | 29399 ft | 463 kts | 199° |
| 2026-05-06 15:34 | 50.91654 | 4.04799 | 29851 ft | 461 kts | 199° |
| 2026-05-06 15:34 | 50.88626 | 4.03154 | 30201 ft | 460 kts | 199° |
| 2026-05-06 15:34 | 50.85602 | 4.01476 | 30463 ft | 460 kts | 200° |
| 2026-05-06 15:34 | 50.82624 | 3.99634 | 30802 ft | 459 kts | 202° |
| 2026-05-06 15:35 | 50.79671 | 3.97697 | 31120 ft | 459 kts | 202° |
| 2026-05-06 15:35 | 50.76719 | 3.95731 | 31317 ft | 460 kts | 202° |
| 2026-05-06 15:35 | 50.73777 | 3.93782 | 31666 ft | 459 kts | 202° |
| 2026-05-06 15:35 | 50.70826 | 3.91851 | 31993 ft | 458 kts | 202° |
| 2026-05-06 15:36 | 50.67874 | 3.89943 | 32239 ft | 459 kts | 202° |
| 2026-05-06 15:36 | 50.64917 | 3.88051 | 32539 ft | 458 kts | 202° |
| 2026-05-06 15:36 | 50.61974 | 3.86178 | 32847 ft | 457 kts | 202° |
| 2026-05-06 15:36 | 50.59009 | 3.84299 | 32889 ft | 460 kts | 202° |
| 2026-05-06 15:37 | 50.53114 | 3.80479 | 32891 ft | 457 kts | 203° |
| 2026-05-06 15:37 | 50.47283 | 3.76459 | 32895 ft | 458 kts | 204° |
| 2026-05-06 15:38 | 50.41496 | 3.72460 | 32893 ft | 457 kts | 204° |
| 2026-05-06 15:38 | 50.35649 | 3.68467 | 32892 ft | 457 kts | 203° |
| 2026-05-06 15:39 | 50.29801 | 3.64499 | 32893 ft | 459 kts | 203° |
| 2026-05-06 15:39 | 50.23943 | 3.60551 | 32894 ft | 459 kts | 203° |
| 2026-05-06 15:40 | 50.18074 | 3.56607 | 32895 ft | 459 kts | 203° |
| 2026-05-06 15:40 | 50.12207 | 3.52671 | 32894 ft | 459 kts | 203° |
| 2026-05-06 15:41 | 50.06380 | 3.48771 | 32892 ft | 458 kts | 203° |
| 2026-05-06 15:41 | 50.00516 | 3.44857 | 32895 ft | 458 kts | 203° |
| 2026-05-06 15:42 | 49.94660 | 3.40960 | 32897 ft | 459 kts | 203° |
| 2026-05-06 15:42 | 49.88871 | 3.37117 | 32894 ft | 458 kts | 203° |
| 2026-05-06 15:43 | 49.83034 | 3.33252 | 32897 ft | 459 kts | 202° |
| 2026-05-06 15:43 | 49.77158 | 3.29371 | 32897 ft | 459 kts | 202° |
| 2026-05-06 15:44 | 49.71277 | 3.25496 | 32893 ft | 459 kts | 202° |
| 2026-05-06 15:44 | 49.65384 | 3.21624 | 32895 ft | 461 kts | 202° |
| 2026-05-06 15:45 | 49.59477 | 3.17753 | 32898 ft | 462 kts | 202° |
| 2026-05-06 15:45 | 49.53585 | 3.13902 | 32896 ft | 461 kts | 202° |
| 2026-05-06 15:46 | 49.47800 | 3.09679 | 32900 ft | 460 kts | 211° |
| 2026-05-06 15:46 | 49.42371 | 3.04396 | 32894 ft | 462 kts | 213° |
| 2026-05-06 15:47 | 49.37045 | 2.98973 | 32901 ft | 463 kts | 213° |
| 2026-05-06 15:47 | 49.31654 | 2.93471 | 32899 ft | 462 kts | 213° |
| 2026-05-06 15:48 | 49.26317 | 2.88065 | 32901 ft | 463 kts | 213° |
| 2026-05-06 15:48 | 49.20952 | 2.82661 | 32905 ft | 462 kts | 213° |
| 2026-05-06 15:49 | 49.15577 | 2.77263 | 32908 ft | 462 kts | 213° |
| 2026-05-06 15:49 | 49.10206 | 2.71884 | 32911 ft | 462 kts | 213° |
| 2026-05-06 15:50 | 49.04827 | 2.66509 | 32915 ft | 462 kts | 213° |
| 2026-05-06 15:50 | 48.99448 | 2.61151 | 32911 ft | 463 kts | 213° |
| 2026-05-06 15:51 | 48.94013 | 2.55746 | 32912 ft | 466 kts | 213° |
| 2026-05-06 15:51 | 48.88608 | 2.50386 | 32912 ft | 467 kts | 213° |
| 2026-05-06 15:52 | 48.83162 | 2.45001 | 32912 ft | 467 kts | 213° |
| 2026-05-06 15:52 | 48.77719 | 2.39633 | 32912 ft | 466 kts | 213° |
| 2026-05-06 15:53 | 48.72271 | 2.34274 | 32913 ft | 466 kts | 213° |
| 2026-05-06 15:53 | 48.66816 | 2.28922 | 32912 ft | 467 kts | 213° |
| 2026-05-06 15:54 | 48.61368 | 2.23592 | 32910 ft | 466 kts | 213° |
| 2026-05-06 15:54 | 48.55621 | 2.19110 | 32908 ft | 466 kts | 199° |
| 2026-05-06 15:55 | 48.49390 | 2.16653 | 32905 ft | 466 kts | 193° |
| 2026-05-06 15:55 | 48.43035 | 2.14624 | 32906 ft | 468 kts | 192° |
| 2026-05-06 15:56 | 48.36618 | 2.12632 | 32905 ft | 473 kts | 192° |
| 2026-05-06 15:56 | 48.30158 | 2.10767 | 32908 ft | 473 kts | 186° |
| 2026-05-06 15:57 | 48.23582 | 2.10980 | 32910 ft | 474 kts | 174° |
| 2026-05-06 15:57 | 48.18132 | 2.12024 | 32916 ft | 474 kts | 172° |
| 2026-05-06 15:58 | 48.11597 | 2.13155 | 32931 ft | 473 kts | 176° |
| 2026-05-06 15:58 | 48.05066 | 2.13683 | 32933 ft | 467 kts | 178° |
| 2026-05-06 15:59 | 47.98583 | 2.14066 | 32936 ft | 466 kts | 178° |
| 2026-05-06 15:59 | 47.92098 | 2.14427 | 32938 ft | 466 kts | 178° |
| 2026-05-06 16:00 | 47.85608 | 2.14797 | 32935 ft | 467 kts | 178° |
| 2026-05-06 16:00 | 47.79123 | 2.15175 | 32905 ft | 466 kts | 178° |
| 2026-05-06 16:01 | 47.72679 | 2.15552 | 32909 ft | 467 kts | 178° |
| 2026-05-06 16:01 | 47.66183 | 2.15931 | 32912 ft | 467 kts | 178° |
| 2026-05-06 16:02 | 47.59693 | 2.16307 | 32908 ft | 467 kts | 178° |
| 2026-05-06 16:02 | 47.53195 | 2.16683 | 32912 ft | 468 kts | 178° |
| 2026-05-06 16:03 | 47.46687 | 2.17058 | 32918 ft | 468 kts | 178° |
| 2026-05-06 16:03 | 47.40180 | 2.17433 | 32920 ft | 468 kts | 178° |
| 2026-05-06 16:04 | 47.33670 | 2.17807 | 32916 ft | 468 kts | 178° |
| 2026-05-06 16:04 | 47.27154 | 2.18181 | 32926 ft | 469 kts | 178° |
| 2026-05-06 16:05 | 47.20682 | 2.18550 | 32927 ft | 469 kts | 178° |
| 2026-05-06 16:05 | 47.14169 | 2.18921 | 32928 ft | 469 kts | 178° |
| 2026-05-06 16:06 | 47.07646 | 2.19008 | 32927 ft | 469 kts | 183° |
| 2026-05-06 16:06 | 47.01125 | 2.18365 | 32924 ft | 469 kts | 185° |
| 2026-05-06 16:07 | 46.94613 | 2.17593 | 32924 ft | 469 kts | 185° |
| 2026-05-06 16:07 | 46.88101 | 2.16815 | 32925 ft | 471 kts | 185° |
| 2026-05-06 16:08 | 46.81566 | 2.16053 | 32923 ft | 471 kts | 185° |
| 2026-05-06 16:08 | 46.75033 | 2.15302 | 32920 ft | 471 kts | 185° |
| 2026-05-06 16:09 | 46.68492 | 2.14554 | 32923 ft | 471 kts | 185° |
| 2026-05-06 16:09 | 46.61956 | 2.13809 | 32924 ft | 471 kts | 185° |
| 2026-05-06 16:10 | 46.55420 | 2.13065 | 32924 ft | 471 kts | 185° |
| 2026-05-06 16:10 | 46.48917 | 2.12327 | 32921 ft | 472 kts | 185° |
| 2026-05-06 16:11 | 46.42346 | 2.11580 | 32917 ft | 473 kts | 186° |
| 2026-05-06 16:11 | 46.35766 | 2.10834 | 32913 ft | 473 kts | 185° |
| 2026-05-06 16:12 | 46.29246 | 2.10099 | 32910 ft | 472 kts | 185° |
| 2026-05-06 16:12 | 46.22699 | 2.09361 | 32906 ft | 471 kts | 186° |
| 2026-05-06 16:13 | 46.16160 | 2.08547 | 32914 ft | 471 kts | 188° |
| 2026-05-06 16:13 | 46.09668 | 2.07275 | 32907 ft | 470 kts | 189° |
| 2026-05-06 16:14 | 46.03181 | 2.06032 | 32900 ft | 470 kts | 188° |
| 2026-05-06 16:14 | 45.96697 | 2.04822 | 32902 ft | 470 kts | 189° |
| 2026-05-06 16:15 | 45.90205 | 2.03622 | 32900 ft | 471 kts | 188° |
| 2026-05-06 16:15 | 45.83691 | 2.02424 | 32896 ft | 472 kts | 188° |
| 2026-05-06 16:16 | 45.77173 | 2.01229 | 32895 ft | 472 kts | 188° |
| 2026-05-06 16:16 | 45.70702 | 2.00046 | 32895 ft | 472 kts | 188° |
| 2026-05-06 16:17 | 45.64182 | 1.98856 | 32901 ft | 472 kts | 188° |
| 2026-05-06 16:17 | 45.57664 | 1.97669 | 32897 ft | 472 kts | 188° |
| 2026-05-06 16:18 | 45.51153 | 1.96486 | 32903 ft | 470 kts | 188° |
| 2026-05-06 16:18 | 45.44679 | 1.95313 | 32904 ft | 469 kts | 188° |
| 2026-05-06 16:19 | 45.38199 | 1.94142 | 32907 ft | 469 kts | 188° |
| 2026-05-06 16:19 | 45.31724 | 1.92973 | 32909 ft | 469 kts | 188° |
| 2026-05-06 16:20 | 45.30109 | 1.92681 | 32908 ft | 470 kts | 188° |
| 2026-05-06 16:22 | 45.24452 | 1.91663 | 32676 ft | 472 kts | 188° |
| 2026-05-06 16:23 | 45.21183 | 1.91075 | 32417 ft | 475 kts | 188° |
| 2026-05-06 16:23 | 45.17900 | 1.90486 | 32154 ft | 477 kts | 188° |
| 2026-05-06 16:23 | 45.14598 | 1.89896 | 31890 ft | 476 kts | 189° |
| 2026-05-06 16:23 | 45.11316 | 1.89309 | 31633 ft | 475 kts | 189° |
| 2026-05-06 16:24 | 45.08031 | 1.88721 | 31389 ft | 475 kts | 189° |
| 2026-05-06 16:24 | 45.04748 | 1.88134 | 31135 ft | 476 kts | 189° |
| 2026-05-06 16:24 | 45.01505 | 1.87556 | 30590 ft | 476 kts | 189° |
| 2026-05-06 16:24 | 44.98209 | 1.86969 | 29777 ft | 479 kts | 189° |
| 2026-05-06 16:25 | 44.94911 | 1.86383 | 29048 ft | 478 kts | 189° |
| 2026-05-06 16:25 | 44.91623 | 1.85801 | 28488 ft | 473 kts | 189° |
| 2026-05-06 16:25 | 44.88376 | 1.85226 | 27927 ft | 468 kts | 189° |
| 2026-05-06 16:25 | 44.85156 | 1.84656 | 27371 ft | 465 kts | 189° |
| 2026-05-06 16:26 | 44.81961 | 1.84090 | 26814 ft | 461 kts | 189° |
| 2026-05-06 16:26 | 44.78780 | 1.83527 | 26260 ft | 458 kts | 189° |
| 2026-05-06 16:26 | 44.75627 | 1.82969 | 25705 ft | 454 kts | 189° |
| 2026-05-06 16:26 | 44.72498 | 1.82418 | 25162 ft | 451 kts | 189° |
| 2026-05-06 16:27 | 44.69400 | 1.81871 | 24619 ft | 448 kts | 189° |
| 2026-05-06 16:27 | 44.66324 | 1.81329 | 24069 ft | 445 kts | 189° |
| 2026-05-06 16:27 | 44.63252 | 1.80785 | 23526 ft | 443 kts | 189° |
| 2026-05-06 16:27 | 44.60196 | 1.80246 | 22769 ft | 443 kts | 189° |
| 2026-05-06 16:28 | 44.57120 | 1.79699 | 21542 ft | 449 kts | 189° |
| 2026-05-06 16:28 | 44.54003 | 1.79156 | 18768 ft | 467 kts | 188° |
| 2026-05-06 16:28 | 44.50703 | 1.78573 | 12853 ft | 476 kts | 188° |
| 2026-05-06 16:28 | 44.47492 | 1.78018 | 5575 ft | 468 kts | 188° |
| 2026-05-06 16:29 | 44.45378 | 1.77689 | 4480 ft | 406 kts | 188° |